Data for 11/20/2010

Time Sea-Level Adjusted Pressure Absolute Pressure Temperature Relative Humidity Dew Point   
(mb) (inHg) (mb) (inHg) (C) (F) (%) (C) (F)
00:05 1009 29.8 839 24.78 -9.2 15.5 82 -11.6 11
00:10 1009 29.8 839 24.78 -9.2 15.4 82 -11.7 11
00:15 1009 29.8 839 24.78 -9.2 15.4 84 -11.5 11.3
00:20 1010 29.83 839 24.78 -9.2 15.4 84 -11.5 11.3
00:25 1010 29.83 839 24.78 -9.3 15.2 85 -11.4 11.4
00:30 1010 29.83 839 24.78 -9.4 15.1 85 -11.5 11.3
00:35 1009 29.8 839 24.78 -9.6 14.8 85 -11.7 11
00:40 1009 29.8 839 24.78 -9.6 14.7 86 -11.5 11.3
00:45 1009 29.8 838 24.75 -9.7 14.6 86 -11.5 11.2
00:50 1009 29.8 838 24.75 -9.7 14.6 86 -11.5 11.2
00:55 1009 29.8 838 24.75 -9.8 14.4 87 -11.6 11.1
01:00 1009 29.8 838 24.75 -9.8 14.3 87 -11.6 11.2
01:05 1009 29.8 838 24.75 -9.9 14.2 87 -11.7 11
01:10 1009 29.8 838 24.75 -9.9 14.1 87 -11.8 10.8
01:15 1009 29.8 838 24.75 -10 14.1 86 -11.8 10.7
01:20 1009 29.8 838 24.75 -9.9 14.1 87 -11.8 10.8
01:25 1009 29.8 838 24.75 -9.8 14.3 86 -11.7 11
01:30 1009 29.8 838 24.75 -9.8 14.5 86 -11.7 11
01:35 1009 29.8 838 24.75 -9.7 14.5 85 -11.8 10.8
01:40 1009 29.8 838 24.75 -9.6 14.8 84 -11.7 10.9
01:45 1009 29.8 838 24.75 -9.3 15.2 84 -11.6 11.2
01:50 1009 29.8 838 24.75 -9.2 15.5 83 -11.5 11.2
01:55 1009 29.8 838 24.75 -9 15.8 83 -11.4 11.5
02:00 1009 29.8 838 24.75 -8.9 16.1 82 -11.4 11.5
02:05 1009 29.8 838 24.75 -8.8 16.2 81 -11.4 11.5
02:10 1009 29.8 838 24.75 -8.7 16.4 82 -11.3 11.7
02:15 1009 29.8 838 24.75 -8.7 16.4 82 -11.2 11.9
02:20 1009 29.8 838 24.75 -8.6 16.5 82 -11.1 11.9
02:25 1009 29.8 838 24.75 -8.5 16.6 80 -11.3 11.6
02:30 1009 29.8 838 24.75 -8.5 16.7 80 -11.4 11.5
02:35 1009 29.8 838 24.75 -8.6 16.6 81 -11.3 11.7
02:40 1009 29.8 838 24.75 -8.6 16.5 80 -11.4 11.4
02:45 1009 29.8 838 24.75 -8.7 16.4 82 -11.3 11.7
02:50 1009 29.8 838 24.75 -8.8 16.1 82 -11.4 11.5
02:55 1009 29.8 838 24.75 -8.9 16 82 -11.4 11.4
03:00 1009 29.8 838 24.75 -9 15.8 83 -11.3 11.6
03:05 1009 29.8 838 24.75 -9 15.9 83 -11.4 11.5
03:10 1009 29.8 838 24.75 -8.9 16 82 -11.5 11.4
03:15 1009 29.8 838 24.75 -8.8 16.1 81 -11.5 11.4
03:20 1009 29.8 838 24.75 -8.9 16.1 82 -11.3 11.6
03:25 1009 29.8 838 24.75 -8.9 16 82 -11.5 11.3
03:30 1009 29.8 838 24.75 -9 15.8 82 -11.6 11.1
03:35 1009 29.8 838 24.75 -9.2 15.4 84 -11.5 11.3
03:40 1009 29.8 838 24.75 -9.5 15 85 -11.5 11.3
03:45 1009 29.8 838 24.75 -9.6 14.7 86 -11.5 11.3
03:50 1009 29.8 838 24.75 -9.7 14.5 86 -11.6 11.1
03:55 1009 29.8 838 24.75 -9.9 14.3 86 -11.7 10.9
04:00 1009 29.8 838 24.75 -10.1 13.8 86 -12.1 10.2
04:05 1009 29.8 838 24.75 -10.3 13.6 86 -12.2 10
04:10 1008 29.77 838 24.75 -10.3 13.6 85 -12.4 9.8
04:15 1008 29.77 838 24.75 -10.3 13.4 84 -12.6 9.3
04:20 1008 29.77 838 24.75 -10.4 13.3 84 -12.6 9.4
04:25 1009 29.8 838 24.75 -10.4 13.2 83 -12.7 9.1
04:30 1009 29.8 838 24.75 -10.5 13.1 83 -12.8 8.9
04:35 1009 29.8 838 24.75 -10.5 13 82 -13 8.5
04:40 1009 29.8 838 24.75 -10.5 13 82 -13 8.6
04:45 1009 29.8 838 24.75 -10.6 13 81 -13.2 8.2
04:50 1009 29.8 838 24.75 -10.7 12.8 82 -13.2 8.2
04:55 1009 29.8 838 24.75 -10.8 12.6 82 -13.4 7.9
05:00 1009 29.8 838 24.75 -10.9 12.4 82 -13.4 7.8
05:05 1009 29.8 838 24.75 -11.1 12.1 82 -13.6 7.5
05:10 1009 29.8 838 24.75 -11.3 11.6 82 -13.8 7.2
05:15 1009 29.8 838 24.75 -11.6 11.2 83 -13.9 7
05:20 1009 29.8 838 24.75 -11.7 11 84 -13.9 7
05:25 1009 29.8 838 24.75 -11.7 10.9 83 -14.1 6.6
05:30 1009 29.8 838 24.75 -11.9 10.6 83 -14.2 6.4
05:35 1009 29.8 838 24.75 -12 10.4 82 -14.5 5.9
05:40 1009 29.8 838 24.75 -12.1 10.3 81 -14.7 5.6
05:45 1009 29.8 838 24.75 -12.2 10 81 -14.9 5.3
05:50 1009 29.8 838 24.75 -12.4 9.8 81 -15 4.9
05:55 1009 29.8 838 24.75 -12.4 9.7 81 -15 4.9
06:00 1009 29.8 838 24.75 -12.5 9.6 80 -15.2 4.6
06:05 1009 29.8 838 24.75 -12.6 9.4 80 -15.3 4.5
06:10 1009 29.8 838 24.75 -12.7 9.2 81 -15.3 4.5
06:15 1009 29.8 838 24.75 -12.8 9 81 -15.5 4.2
06:20 1009 29.8 838 24.75 -12.9 8.9 80 -15.6 3.8
06:25 1009 29.8 838 24.75 -12.8 8.9 78 -15.8 3.5
06:30 1009 29.8 838 24.75 -12.8 8.9 78 -15.9 3.5
06:35 1009 29.8 838 24.75 -12.8 8.9 79 -15.8 3.6
06:40 1009 29.8 838 24.75 -12.9 8.9 79 -15.8 3.6
06:45 1009 29.8 838 24.75 -12.9 8.9 80 -15.7 3.8
06:50 1009 29.8 838 24.75 -12.8 8.9 79 -15.8 3.6
06:55 1009 29.8 838 24.75 -12.9 8.8 78 -15.9 3.4
07:00 1009 29.8 838 24.75 -12.9 8.9 78 -15.9 3.5
07:05 1009 29.8 838 24.75 -12.9 8.8 78 -16 3.1
07:10 1009 29.8 838 24.75 -12.9 8.7 78 -16.1 3.1
07:15 1009 29.8 838 24.75 -13 8.7 78 -16 3.3
07:20 1009 29.8 838 24.75 -13 8.7 79 -15.9 3.4
07:25 1009 29.8 838 24.75 -13 8.7 79 -15.8 3.5
07:30 1009 29.8 838 24.75 -13 8.6 80 -15.8 3.5
07:35 1009 29.8 838 24.75 -13 8.5 80 -15.8 3.6
07:40 1009 29.8 838 24.75 -13.1 8.5 80 -15.8 3.6
07:45 1009 29.8 838 24.75 -13.1 8.4 80 -15.8 3.5
07:50 1009 29.8 838 24.75 -13.1 8.5 79 -16 3.3
07:55 1009 29.8 838 24.75 -13.1 8.3 80 -16 3.3
08:00 1009 29.8 838 24.75 -13.2 8.3 80 -16 3.2
08:05 1009 29.8 838 24.75 -13.2 8.3 80 -16 3.2
08:10 1009 29.8 838 24.75 -13.2 8.3 78 -16.2 2.8
08:15 1009 29.8 838 24.75 -13.2 8.3 77 -16.4 2.4
08:20 1009 29.8 838 24.75 -13.2 8.2 77 -16.5 2.4
08:25 1009 29.8 838 24.75 -13.3 8 78 -16.4 2.5
08:30 1009 29.8 838 24.75 -13.4 8 77 -16.6 2.2
08:35 1009 29.8 838 24.75 -13.4 8 78 -16.5 2.3
08:40 1009 29.8 838 24.75 -13.4 7.9 77 -16.5 2.2
08:45 1009 29.8 838 24.75 -13.5 7.7 79 -16.4 2.4
08:50 1009 29.8 838 24.75 -13.6 7.6 79 -16.5 2.3
08:55 1009 29.8 838 24.75 -13.6 7.6 77 -16.8 1.8
09:00 1009 29.8 838 24.75 -13.6 7.6 77 -16.8 1.7
09:05 1009 29.8 838 24.75 -13.6 7.5 76 -17 1.4
09:10 1009 29.8 838 24.75 -13.6 7.4 77 -16.9 1.6
09:15 1009 29.8 838 24.75 -13.7 7.4 78 -16.7 1.9
09:20 1009 29.8 838 24.75 -13.7 7.3 78 -16.7 1.9
09:25 1009 29.8 838 24.75 -13.7 7.4 76 -17.1 1.3
09:30 1009 29.8 838 24.75 -13.7 7.4 77 -17 1.5
09:35 1009 29.8 838 24.75 -13.7 7.4 78 -16.8 1.8
09:40 1009 29.8 838 24.75 -13.7 7.3 77 -17 1.4
09:45 1009 29.8 838 24.75 -13.8 7.3 77 -17 1.4
09:50 1009 29.8 838 24.75 -13.7 7.3 75 -17.2 1
09:55 1009 29.8 838 24.75 -13.7 7.3 75 -17.3 0.9
10:00 1009 29.8 838 24.75 -13.7 7.4 74 -17.4 0.7
10:05 1009 29.8 838 24.75 -13.6 7.5 75 -17.2 1.1
10:10 1009 29.8 838 24.75 -13.6 7.5 74 -17.3 0.9
10:15 1009 29.8 838 24.75 -13.6 7.5 74 -17.2 1
10:20 1009 29.8 838 24.75 -13.6 7.5 73 -17.5 0.5
10:25 1009 29.8 838 24.75 -13.7 7.4 75 -17.2 1
10:30 1009 29.8 838 24.75 -13.8 7.2 76 -17.1 1.2
10:35 1009 29.8 838 24.75 -13.9 7 78 -17 1.4
10:40 1009 29.8 838 24.75 -14 6.9 78 -17.1 1.3
10:45 1009 29.8 838 24.75 -13.8 7.1 77 -17.1 1.3
10:50 1008 29.77 838 24.75 -13.8 7.1 75 -17.3 0.9
10:55 1008 29.77 838 24.75 -13.7 7.3 74 -17.4 0.8
11:00 1008 29.77 838 24.75 -13.7 7.3 75 -17.2 1.1
11:05 1008 29.77 838 24.75 -13.7 7.3 73 -17.6 0.3
11:10 1008 29.77 837 24.72 -13.7 7.3 72 -17.7 0.1
11:15 1008 29.77 837 24.72 -13.7 7.4 73 -17.5 0.6
11:20 1008 29.77 838 24.75 -13.6 7.5 74 -17.3 0.9
11:25 1008 29.77 838 24.75 -13.6 7.5 73 -17.5 0.4
11:30 1008 29.77 838 24.75 -13.6 7.5 73 -17.4 0.7
11:35 1008 29.77 837 24.72 -13.6 7.6 71 -17.7 0.1
11:40 1008 29.77 837 24.72 -13.6 7.6 72 -17.5 0.4
11:45 1008 29.77 837 24.72 -13.6 7.5 74 -17.4 0.7
11:50 1008 29.77 837 24.72 -13.6 7.4 73 -17.5 0.6
11:55 1008 29.77 837 24.72 -13.7 7.3 72 -17.7 0.2
12:00 1008 29.77 837 24.72 -13.7 7.3 71 -17.9 -0.2
12:05 1007 29.74 837 24.72 -13.7 7.4 71 -17.8 -0.1
12:10 1007 29.74 837 24.72 -13.7 7.4 69 -18.1 -0.6
12:15 1007 29.74 836 24.69 -13.6 7.5 68 -18.4 -1.1
12:20 1007 29.74 837 24.72 -13.6 7.6 68 -18.2 -0.8
12:25 1007 29.74 836 24.69 -13.6 7.5 68 -18.3 -0.9
12:30 1007 29.74 836 24.69 -13.6 7.5 68 -18.3 -0.9
12:35 1007 29.74 836 24.69 -13.7 7.4 69 -18.2 -0.8
12:40 1007 29.74 836 24.69 -13.5 7.7 67 -18.4 -1.1
12:45 1007 29.74 836 24.69 -13.6 7.6 68 -18.3 -1
12:50 1007 29.74 836 24.69 -13.6 7.6 68 -18.2 -0.8
12:55 1007 29.74 837 24.72 -13.5 7.7 68 -18.2 -0.8
13:00 1007 29.74 837 24.72 -13.5 7.7 68 -18.3 -0.9
13:05 1007 29.74 837 24.72 -13.6 7.6 69 -18.2 -0.7
13:10 1007 29.74 837 24.72 -13.6 7.5 69 -18.1 -0.6
13:15 1007 29.74 837 24.72 -13.7 7.4 69 -18.2 -0.7
13:20 1008 29.77 837 24.72 -13.6 7.4 70 -18.1 -0.5
13:25 1008 29.77 837 24.72 -13.7 7.4 69 -18.2 -0.7
13:30 1008 29.77 837 24.72 -13.6 7.5 71 -17.9 -0.2
13:35 1008 29.77 837 24.72 -13.7 7.3 72 -17.7 0.1
13:40 1008 29.77 837 24.72 -13.9 7 76 -17.3 0.8
13:45 1008 29.77 837 24.72 -14 6.8 78 -17 1.4
13:50 1008 29.77 837 24.72 -14 6.7 78 -17.1 1.3
13:55 1008 29.77 837 24.72 -14.1 6.7 79 -17 1.5
14:00 1008 29.77 837 24.72 -14.1 6.6 80 -16.9 1.5
14:05 1008 29.77 837 24.72 -14.1 6.6 80 -16.8 1.7
14:10 1008 29.77 837 24.72 -14.2 6.5 79 -17 1.3
14:15 1008 29.77 837 24.72 -14.2 6.5 79 -17.1 1.2
14:20 1008 29.77 837 24.72 -14.2 6.4 77 -17.4 0.6
14:25 1008 29.77 837 24.72 -14.3 6.3 77 -17.4 0.7
14:30 1008 29.77 837 24.72 -14.2 6.4 78 -17.3 0.8
14:35 1008 29.77 837 24.72 -14.3 6.3 77 -17.4 0.6
14:40 1008 29.77 837 24.72 -14.4 6.1 79 -17.3 0.8
14:45 1008 29.77 837 24.72 -14.4 6.1 78 -17.4 0.6
14:50 1008 29.77 837 24.72 -14.4 6 81 -17 1.4
14:55 1008 29.77 837 24.72 -14.4 6 81 -17 1.3
15:00 1008 29.77 837 24.72 -14.5 5.8 80 -17.2 1
15:05 1008 29.77 837 24.72 -14.5 5.9 80 -17.3 0.9
15:10 1008 29.77 837 24.72 -14.5 5.8 79 -17.4 0.7
15:15 1007 29.74 837 24.72 -14.6 5.7 80 -17.4 0.6
15:20 1007 29.74 836 24.69 -14.7 5.6 78 -17.7 0.1
15:25 1007 29.74 836 24.69 -14.7 5.6 77 -17.9 -0.2
15:30 1007 29.74 836 24.69 -14.6 5.7 73 -18.4 -1.1
15:35 1007 29.74 837 24.72 -14.6 5.8 74 -18.3 -0.9
15:40 1007 29.74 836 24.69 -14.6 5.8 70 -18.9 -2
15:45 1007 29.74 836 24.69 -14.6 5.7 69 -19 -2.2
15:50 1007 29.74 836 24.69 -14.7 5.6 69 -19.2 -2.6
15:55 1007 29.74 836 24.69 -14.7 5.6 69 -19.2 -2.5
16:00 1007 29.74 836 24.69 -14.7 5.5 70 -19.1 -2.3
16:05 1007 29.74 836 24.69 -14.8 5.5 69 -19.3 -2.8
16:10 1007 29.74 836 24.69 -14.8 5.3 70 -19.2 -2.6
16:15 1007 29.74 837 24.72 -14.8 5.3 69 -19.3 -2.8
16:20 1008 29.77 837 24.72 -14.9 5.3 68 -19.5 -3.1
16:25 1008 29.77 837 24.72 -14.9 5.2 68 -19.5 -3.1
16:30 1008 29.77 837 24.72 -14.9 5.1 70 -19.3 -2.8
16:35 1008 29.77 837 24.72 -14.9 5.1 69 -19.5 -3
16:40 1008 29.77 837 24.72 -15 5.1 69 -19.4 -2.8
16:45 1008 29.77 837 24.72 -15 5 70 -19.3 -2.8
16:50 1008 29.77 837 24.72 -15 5 71 -19.1 -2.4
16:55 1008 29.77 837 24.72 -15.1 4.9 73 -18.9 -2.1
17:00 1008 29.77 837 24.72 -15.1 4.9 72 -19 -2.2
17:05 1008 29.77 837 24.72 -15.1 4.8 73 -19 -2.2
17:10 1008 29.77 837 24.72 -15.2 4.7 73 -19 -2.2
17:15 1008 29.77 837 24.72 -15.2 4.7 73 -19.1 -2.3
17:20 1008 29.77 837 24.72 -15.2 4.6 73 -19.1 -2.3
17:25 1008 29.77 837 24.72 -15.3 4.6 73 -19 -2.2
17:30 1008 29.77 838 24.75 -15.3 4.6 73 -19.1 -2.4
17:35 1009 29.8 838 24.75 -15.2 4.6 73 -19.1 -2.4
17:40 1009 29.8 838 24.75 -15.3 4.5 73 -19.1 -2.4
17:45 1009 29.8 838 24.75 -15.3 4.5 73 -19 -2.2
17:50 1009 29.8 838 24.75 -15.2 4.6 73 -19 -2.1
17:55 1009 29.8 838 24.75 -15.2 4.6 74 -18.9 -2.1
18:00 1009 29.8 838 24.75 -15.2 4.6 74 -18.9 -2.1
18:05 1009 29.8 838 24.75 -15.3 4.6 74 -18.9 -2
18:10 1009 29.8 838 24.75 -15.2 4.6 76 -18.6 -1.4
18:15 1009 29.8 838 24.75 -15.2 4.6 76 -18.5 -1.3
18:20 1009 29.8 838 24.75 -15.3 4.5 77 -18.4 -1.1
18:25 1009 29.8 839 24.78 -15.3 4.5 78 -18.2 -0.8
18:30 1010 29.83 839 24.78 -15.3 4.5 80 -18 -0.3
18:35 1010 29.83 839 24.78 -15.1 4.7 81 -17.7 0.1
18:40 1010 29.83 839 24.78 -15.1 4.8 80 -17.9 -0.2
18:45 1010 29.83 839 24.78 -15.2 4.6 80 -17.9 -0.2
18:50 1010 29.83 839 24.78 -15.2 4.6 82 -17.6 0.2
18:55 1010 29.83 839 24.78 -15.1 4.8 81 -17.7 0.1
19:00 1010 29.83 839 24.78 -15.1 4.7 82 -17.6 0.4
19:05 1009 29.8 839 24.78 -15.1 4.8 83 -17.3 0.8
19:10 1010 29.83 839 24.78 -15.1 4.9 84 -17.2 1.1
19:15 1010 29.83 839 24.78 -15.1 4.8 85 -17.1 1.2
19:20 1010 29.83 839 24.78 -15.1 4.7 86 -17 1.5
19:25 1009 29.8 839 24.78 -15.2 4.6 87 -17 1.5
19:30 1010 29.83 839 24.78 -15.2 4.7 87 -17 1.5
19:35 1010 29.83 839 24.78 -15.2 4.6 86 -17.1 1.3
19:40 1010 29.83 839 24.78 -15.2 4.7 86 -17 1.5
19:45 1010 29.83 839 24.78 -15.1 4.8 86 -16.9 1.6
19:50 1010 29.83 839 24.78 -15.1 4.8 87 -16.9 1.6
19:55 1010 29.83 839 24.78 -15.1 4.9 87 -16.8 1.8
20:00 1010 29.83 839 24.78 -15.1 4.9 87 -16.8 1.7
20:05 1010 29.83 839 24.78 -15.1 4.9 86 -16.9 1.6
20:10 1010 29.83 839 24.78 -15.1 4.8 87 -16.8 1.7
20:15 1010 29.83 839 24.78 -15 5 87 -16.7 1.9
20:20 1010 29.83 839 24.78 -15 5.1 86 -16.8 1.8
20:25 1010 29.83 839 24.78 -15.1 4.9 86 -16.9 1.7
20:30 1010 29.83 839 24.78 -15.1 4.9 87 -16.9 1.7
20:35 1010 29.83 839 24.78 -14.9 5.2 87 -16.6 2.2
20:40 1010 29.83 839 24.78 -14.7 5.5 86 -16.5 2.2
20:45 1010 29.83 839 24.78 -14.7 5.5 86 -16.6 2.2
20:50 1010 29.83 839 24.78 -14.8 5.3 86 -16.6 2.1
20:55 1010 29.83 839 24.78 -14.8 5.3 85 -16.8 1.8
21:00 1010 29.83 839 24.78 -15 5.1 85 -16.9 1.5
21:05 1010 29.83 839 24.78 -15 5 86 -16.8 1.7
21:10 1010 29.83 839 24.78 -15 5 85 -17 1.5
21:15 1010 29.83 839 24.78 -15.1 4.9 85 -17.1 1.2
21:20 1010 29.83 839 24.78 -15.2 4.7 84 -17.3 0.9
21:25 1010 29.83 839 24.78 -15.3 4.5 85 -17.3 0.8
21:30 1010 29.83 839 24.78 -15.3 4.5 85 -17.3 0.8
21:35 1010 29.83 839 24.78 -15.3 4.5 84 -17.3 0.8
21:40 1010 29.83 839 24.78 -15.3 4.4 84 -17.4 0.6
21:45 1010 29.83 839 24.78 -15.4 4.3 84 -17.5 0.6
21:50 1010 29.83 839 24.78 -15.4 4.3 84 -17.5 0.5
21:55 1010 29.83 839 24.78 -15.4 4.2 84 -17.5 0.5
22:00 1010 29.83 839 24.78 -15.6 4 85 -17.6 0.3
22:05 1010 29.83 839 24.78 -15.7 3.8 85 -17.7 0.2
22:10 1010 29.83 839 24.78 -15.8 3.6 85 -17.7 0.1
22:15 1010 29.83 839 24.78 -15.8 3.5 85 -17.8 -0.1
22:20 1010 29.83 839 24.78 -15.9 3.3 85 -17.9 -0.2
22:25 1010 29.83 839 24.78 -16.1 3.1 85 -18.1 -0.5
22:30 1010 29.83 839 24.78 -16.3 2.7 84 -18.3 -1
22:35 1010 29.83 839 24.78 -16.5 2.2 84 -18.6 -1.5
22:40 1010 29.83 839 24.78 -16.8 1.8 85 -18.8 -1.8
22:45 1010 29.83 839 24.78 -16.9 1.5 85 -19 -2.1
22:50 1010 29.83 839 24.78 -17.2 1.1 85 -19.1 -2.3
22:55 1010 29.83 839 24.78 -17.2 1.1 85 -19.1 -2.3
23:00 1010 29.83 839 24.78 -17.2 1.1 85 -19.2 -2.5
23:05 1010 29.83 839 24.78 -17.4 0.6 84 -19.5 -3.2
23:10 1010 29.83 840 24.81 -18 -0.4 85 -19.9 -3.8
23:15 1010 29.83 840 24.81 -18.2 -0.7 86 -19.9 -3.9
23:20 1010 29.83 839 24.78 -18.1 -0.6 87 -19.8 -3.6
23:25 1010 29.83 839 24.78 -18 -0.4 87 -19.7 -3.4
23:30 1010 29.83 839 24.78 -17.8 -0 87 -19.5 -3.1
23:35 1010 29.83 839 24.78 -17.6 0.3 86 -19.4 -3
23:40 1010 29.83 839 24.78 -17.6 0.3 86 -19.4 -2.9
23:45 1010 29.83 839 24.78 -17.6 0.4 86 -19.3 -2.8
23:50 1010 29.83 839 24.78 -17.6 0.3 87 -19.3 -2.7
23:55 1010 29.83 839 24.78 -17.7 0.1 88 -19.3 -2.7
24:00 1010 29.83 839 24.78 -17.7 0.1 88 -19.2 -2.5